createdAt,value
2015-08-15T00:00:05.274Z,93.08
2015-08-15T00:00:17.540Z,92.85
2015-08-15T00:00:29.775Z,93.23
2015-08-15T00:00:42.025Z,93.32
2015-08-15T00:00:54.447Z,93.89
2015-08-15T00:01:06.682Z,93.84
2015-08-15T00:01:18.916Z,94.27
2015-08-15T00:01:31.310Z,94.18
2015-08-15T00:01:43.528Z,94.18
2015-08-15T00:01:55.732Z,94.56
2015-08-15T00:02:07.653Z,94.56
2015-08-15T00:02:20.013Z,94.46
2015-08-15T00:02:32.373Z,94.08
2015-08-15T00:02:44.764Z,94.18
2015-08-15T00:02:57.154Z,94.56
2015-08-15T00:03:09.373Z,94.23
2015-08-15T00:03:21.764Z,94.04
2015-08-15T00:03:34.125Z,93.41
2015-08-15T00:03:46.500Z,92.94
2015-08-15T00:03:58.188Z,92.85
2015-08-15T00:04:10.406Z,92.09
2015-08-15T00:04:21.906Z,91.99
2015-08-15T00:04:34.127Z,91.52
2015-08-15T00:04:46.330Z,91.61
2015-08-15T00:04:58.705Z,91.9
2015-08-15T00:05:11.096Z,92.09
2015-08-15T00:05:23.471Z,92.09
2015-08-15T00:05:35.879Z,92.09
2015-08-15T00:05:48.254Z,91.99
2015-08-15T00:06:00.629Z,92.66
2015-08-15T00:06:13.004Z,92.85
2015-08-15T00:06:25.395Z,92.28
2015-08-15T00:06:37.772Z,92.76
2015-08-15T00:06:50.162Z,93.32
2015-08-15T00:07:02.553Z,92.85
2015-08-15T00:07:14.975Z,92.94
2015-08-15T00:07:27.397Z,92.76
2015-08-15T00:07:39.805Z,92.38
2015-08-15T00:07:52.211Z,92.28
2015-08-15T00:08:04.633Z,91.9
2015-08-15T00:08:17.008Z,92.38
2015-08-15T00:08:29.368Z,92.09
2015-08-15T00:08:41.745Z,92.76
2015-08-15T00:08:54.120Z,92.76
2015-08-15T00:09:06.495Z,92.85
2015-08-15T00:09:18.870Z,92.85
2015-08-15T00:09:31.245Z,92.66
2015-08-15T00:09:43.637Z,92.66
2015-08-15T00:09:55.293Z,92.85
2015-08-15T00:10:07.668Z,92.85
2015-08-15T00:10:20.043Z,92.85
2015-08-15T00:10:32.434Z,92.94
2015-08-15T00:10:44.811Z,92.28
2015-08-15T00:10:57.186Z,92.09
2015-08-15T00:11:09.561Z,91.9
2015-08-15T00:11:21.217Z,91.52
2015-08-15T00:11:33.610Z,91.52
2015-08-15T00:11:45.985Z,91.24
2015-08-15T00:11:58.360Z,90.86
2015-08-15T00:12:10.735Z,90.86
2015-08-15T00:12:23.110Z,90.86
2015-08-15T00:12:34.768Z,90.67
2015-08-15T00:12:47.174Z,90.57
2015-08-15T00:12:59.565Z,90.57
2015-08-15T00:13:11.940Z,90.57
2015-08-15T00:13:24.331Z,90.67
2015-08-15T00:13:36.708Z,90
2015-08-15T00:13:49.145Z,89.91
2015-08-15T00:14:01.536Z,89.62
2015-08-15T00:14:13.926Z,89.43
2015-08-15T00:14:26.348Z,89.53
2015-08-15T00:14:38.741Z,89.43
2015-08-15T00:14:51.147Z,89.53
2015-08-15T00:15:03.569Z,89.62
2015-08-15T00:15:15.960Z,89.43
2015-08-15T00:15:28.382Z,89.81
2015-08-15T00:15:40.055Z,89.43
2015-08-15T00:15:52.430Z,89.62
2015-08-15T00:16:04.665Z,89.25
2015-08-15T00:16:17.040Z,89.25
2015-08-15T00:16:29.696Z,89.43
2015-08-15T00:16:42.073Z,89.34
2015-08-15T00:16:54.448Z,88.96
2015-08-15T00:17:06.823Z,88.91
2015-08-15T00:17:18.495Z,89.06
2015-08-15T00:17:30.870Z,89
2015-08-15T00:17:43.247Z,88.72
2015-08-15T00:17:55.638Z,89.1
2015-08-15T00:18:08.028Z,89
2015-08-15T00:18:20.403Z,89.06
2015-08-15T00:18:32.778Z,88.87
2015-08-15T00:18:45.155Z,89.1
2015-08-15T00:18:57.546Z,89.1
2015-08-15T00:19:09.921Z,89.2
2015-08-15T00:19:22.296Z,89.2
2015-08-15T00:19:34.655Z,88.91
2015-08-15T00:19:47.032Z,88.62
2015-08-15T00:19:59.407Z,89
2015-08-15T00:20:11.798Z,89
2015-08-15T00:20:24.188Z,89.1
2015-08-15T00:20:36.579Z,88.81
2015-08-15T00:20:48.955Z,89
2015-08-15T00:21:01.346Z,89.1
2015-08-15T00:21:13.736Z,88.91
2015-08-15T00:21:26.158Z,88.91
2015-08-15T00:21:38.564Z,89.1
2015-08-15T00:21:50.958Z,89
2015-08-15T00:22:03.380Z,89
2015-08-15T00:22:15.771Z,89.39
2015-08-15T00:22:28.192Z,89.39
2015-08-15T00:22:40.599Z,89.67
2015-08-15T00:22:53.006Z,89.67
2015-08-15T00:23:05.428Z,89.58
2015-08-15T00:23:17.865Z,89.58
2015-08-15T00:23:30.240Z,89.48
2015-08-15T00:23:42.615Z,89.29
2015-08-15T00:23:54.977Z,89.58
2015-08-15T00:24:07.367Z,89.48
2015-08-15T00:24:19.742Z,89.48
2015-08-15T00:24:32.117Z,89.29
2015-08-15T00:24:44.492Z,89.48
2015-08-15T00:24:56.886Z,89.67
2015-08-15T00:25:09.261Z,89.39
2015-08-15T00:25:21.636Z,89.29
2015-08-15T00:25:33.995Z,89.39
2015-08-15T00:25:46.231Z,89.39
2015-08-15T00:25:58.606Z,89.2
2015-08-15T00:26:10.981Z,89.86
2015-08-15T00:26:23.356Z,89.48
2015-08-15T00:26:35.731Z,89.86
2015-08-15T00:26:48.109Z,89.29
2015-08-15T00:27:00.499Z,89.29
2015-08-15T00:27:12.874Z,89.95
2015-08-15T00:27:25.249Z,89.86
2015-08-15T00:27:36.921Z,89.95
2015-08-15T00:27:49.297Z,89.76
2015-08-15T00:28:01.688Z,89.67
2015-08-15T00:28:14.063Z,89.48
2015-08-15T00:28:26.453Z,89.29
2015-08-15T00:28:38.844Z,89.86
2015-08-15T00:28:51.237Z,89.29
2015-08-15T00:29:03.643Z,90.05
2015-08-15T00:29:16.049Z,89.67
2015-08-15T00:29:28.471Z,89.2
2015-08-15T00:29:40.877Z,89.39
2015-08-15T00:29:53.301Z,88.81
2015-08-15T00:30:05.723Z,89.1
2015-08-15T00:30:18.134Z,88.53
2015-08-15T00:30:30.384Z,88.91
2015-08-15T00:30:42.661Z,89.1
2015-08-15T00:30:54.321Z,89.1
2015-08-15T00:31:06.086Z,89.29
2015-08-15T00:31:18.321Z,89.48
2015-08-15T00:31:30.243Z,89.48
2015-08-15T00:31:42.305Z,88.81
2015-08-15T00:31:54.759Z,89.2
2015-08-15T00:32:06.978Z,89.2
2015-08-15T00:32:19.197Z,89
2015-08-15T00:32:31.103Z,88.62
2015-08-15T00:32:43.337Z,89.29
2015-08-15T00:32:55.699Z,89.58
2015-08-15T00:33:08.074Z,89.1
2015-08-15T00:33:20.449Z,89.29
2015-08-15T00:33:32.824Z,89.2
2015-08-15T00:33:45.199Z,89.95
2015-08-15T00:33:57.576Z,89.67
2015-08-15T00:34:09.966Z,89.76
2015-08-15T00:34:22.357Z,89.48
2015-08-15T00:34:34.716Z,89.67
2015-08-15T00:34:47.107Z,89.39
2015-08-15T00:34:59.468Z,89.48
2015-08-15T00:35:11.140Z,90.05
2015-08-15T00:35:23.531Z,89.39
2015-08-15T00:35:35.921Z,89.48
2015-08-15T00:35:48.296Z,89.39
2015-08-15T00:36:00.689Z,89.39
2015-08-15T00:36:13.095Z,89.29
2015-08-15T00:36:25.502Z,89.76
2015-08-15T00:36:37.908Z,89.76
2015-08-15T00:36:50.314Z,89.76
2015-08-15T00:37:02.722Z,89.67
2015-08-15T00:37:15.113Z,89.67
2015-08-15T00:37:27.519Z,89.76
2015-08-15T00:37:39.925Z,89.67
2015-08-15T00:37:52.316Z,89.48
2015-08-15T00:38:04.709Z,89.86
2015-08-15T00:38:17.084Z,90.14
2015-08-15T00:38:29.459Z,90.24
2015-08-15T00:38:41.849Z,90.33
2015-08-15T00:38:54.224Z,90.71
2015-08-15T00:39:06.445Z,90.62
2015-08-15T00:39:18.820Z,90.62
2015-08-15T00:39:31.211Z,90.33
2015-08-15T00:39:43.586Z,89.67
2015-08-15T00:39:55.961Z,90.43
2015-08-15T00:40:08.338Z,90.43
2015-08-15T00:40:20.713Z,90.05
2015-08-15T00:40:33.088Z,90.14
2015-08-15T00:40:45.478Z,90.14
2015-08-15T00:40:57.853Z,90.33
2015-08-15T00:41:10.229Z,89.39
2015-08-15T00:41:22.604Z,89.48
2015-08-15T00:41:34.979Z,89.29
2015-08-15T00:41:47.354Z,89.48
2015-08-15T00:41:59.729Z,89.48
2015-08-15T00:42:12.106Z,89.39
2015-08-15T00:42:24.481Z,89.29
2015-08-15T00:42:36.856Z,89.29
2015-08-15T00:42:49.231Z,89.48
2015-08-15T00:43:01.625Z,89.29
2015-08-15T00:43:14.000Z,89.76
2015-08-15T00:43:26.391Z,89.58
2015-08-15T00:43:38.797Z,89.58
2015-08-15T00:43:51.203Z,89.67
2015-08-15T00:44:03.611Z,89.76
2015-08-15T00:44:16.018Z,90.05
2015-08-15T00:44:28.408Z,90.43
2015-08-15T00:44:40.830Z,89.95
2015-08-15T00:44:53.221Z,89.95
2015-08-15T00:45:05.644Z,89.67
2015-08-15T00:45:18.034Z,89.58
2015-08-15T00:45:30.425Z,89.48
2015-08-15T00:45:42.831Z,89.48
2015-08-15T00:45:55.097Z,89.29
2015-08-15T00:46:07.474Z,89.48
2015-08-15T00:46:19.130Z,89.39
2015-08-15T00:46:30.786Z,89.48
2015-08-15T00:46:43.161Z,89.48
2015-08-15T00:46:55.536Z,89.48
2015-08-15T00:47:07.899Z,89.29
2015-08-15T00:47:20.274Z,89.29
2015-08-15T00:47:32.649Z,89.86
2015-08-15T00:47:45.024Z,89.29
2015-08-15T00:47:57.399Z,89.39
2015-08-15T00:48:09.775Z,89.67
2015-08-15T00:48:22.134Z,89.76
2015-08-15T00:48:34.509Z,89.29
2015-08-15T00:48:46.884Z,89.48
2015-08-15T00:48:59.259Z,89.67
2015-08-15T00:49:11.637Z,89.48
2015-08-15T00:49:24.028Z,89.48
2015-08-15T00:49:35.684Z,90.14
2015-08-15T00:49:48.059Z,90.24
2015-08-15T00:50:00.434Z,90.24
2015-08-15T00:50:12.810Z,90.24
2015-08-15T00:50:25.185Z,89.48
2015-08-15T00:50:37.575Z,89.76
2015-08-15T00:50:49.950Z,89.58
2015-08-15T00:51:02.341Z,89.67
2015-08-15T00:51:14.718Z,89.58
2015-08-15T00:51:27.124Z,89.58
2015-08-15T00:51:39.531Z,89.76
2015-08-15T00:51:51.937Z,89.39
2015-08-15T00:52:04.343Z,89.39
2015-08-15T00:52:16.751Z,89.58
2015-08-15T00:52:29.158Z,89.29
2015-08-15T00:52:40.845Z,89.58
2015-08-15T00:52:53.251Z,89.67
2015-08-15T00:53:05.486Z,89.58
2015-08-15T00:53:17.878Z,89.58
2015-08-15T00:53:30.253Z,89.67
2015-08-15T00:53:41.910Z,89.58
2015-08-15T00:53:54.285Z,89.67
2015-08-15T00:54:06.660Z,89.58
2015-08-15T00:54:19.037Z,89.29
2015-08-15T00:54:31.412Z,89.58
2015-08-15T00:54:43.787Z,89.67
2015-08-15T00:54:56.177Z,89.76
2015-08-15T00:55:08.568Z,89.58
2015-08-15T00:55:20.945Z,90.14
2015-08-15T00:55:33.320Z,90.43
2015-08-15T00:55:45.710Z,89.48
2015-08-15T00:55:58.085Z,89.86
2015-08-15T00:56:10.304Z,89.48
2015-08-15T00:56:22.665Z,89.58
2015-08-15T00:56:35.040Z,90.24
2015-08-15T00:56:47.415Z,90.14
2015-08-15T00:56:59.790Z,90.33
2015-08-15T00:57:12.165Z,89.48
2015-08-15T00:57:24.527Z,89.67
2015-08-15T00:57:36.918Z,89.58
2015-08-15T00:57:49.293Z,89.48
2015-08-15T00:58:01.699Z,89.67
2015-08-15T00:58:14.074Z,89.48
2015-08-15T00:58:26.451Z,90.33
2015-08-15T00:58:38.841Z,90.05
2015-08-15T00:58:51.232Z,90.14
2015-08-15T00:59:03.638Z,90.05
2015-08-15T00:59:16.031Z,89.95
2015-08-15T00:59:28.437Z,90.24
2015-08-15T00:59:40.828Z,89.58
2015-08-15T00:59:53.234Z,89.58
2015-08-15T01:00:05.640Z,89.29
2015-08-15T01:00:18.049Z,89.29
2015-08-15T01:00:30.455Z,89.67
2015-08-15T01:00:42.861Z,89.29
2015-08-15T01:00:55.267Z,89.39
2015-08-15T01:01:07.658Z,89.29
2015-08-15T01:01:20.019Z,89.48
2015-08-15T01:01:32.394Z,89.39
2015-08-15T01:01:44.785Z,89.39
2015-08-15T01:01:57.160Z,89.29
2015-08-15T01:02:09.535Z,89.39
2015-08-15T01:02:21.928Z,89.39
2015-08-15T01:02:34.303Z,89.39
2015-08-15T01:02:46.678Z,89.39
2015-08-15T01:02:59.053Z,89.1
2015-08-15T01:03:11.412Z,89.1
2015-08-15T01:03:23.789Z,89.29
2015-08-15T01:03:36.164Z,89.67
2015-08-15T01:03:48.539Z,89.67
2015-08-15T01:04:00.914Z,89.48
2015-08-15T01:04:13.289Z,89.48
2015-08-15T01:04:25.665Z,89.86
2015-08-15T01:04:38.071Z,89.95
2015-08-15T01:04:50.446Z,90.14
2015-08-15T01:05:02.821Z,90.14
2015-08-15T01:05:15.196Z,90.14
2015-08-15T01:05:27.574Z,90.05
2015-08-15T01:05:39.949Z,89.95
2015-08-15T01:05:52.324Z,90.05
2015-08-15T01:06:04.699Z,90.05
2015-08-15T01:06:17.074Z,90.43
2015-08-15T01:06:29.450Z,90.62
2015-08-15T01:06:41.825Z,90.43
2015-08-15T01:06:54.216Z,90.43
2015-08-15T01:07:06.622Z,90.62
2015-08-15T01:07:19.013Z,90.71
2015-08-15T01:07:31.405Z,90.43
2015-08-15T01:07:43.796Z,90.14
2015-08-15T01:07:56.202Z,90.71
2015-08-15T01:08:08.608Z,90.62
2015-08-15T01:08:20.874Z,90.14
2015-08-15T01:08:33.267Z,90.14
2015-08-15T01:08:45.517Z,90.52
2015-08-15T01:08:57.220Z,89.86
2015-08-15T01:09:09.610Z,89.95
2015-08-15T01:09:22.017Z,89.67
2015-08-15T01:09:34.426Z,89.48
2015-08-15T01:09:46.832Z,89.58
2015-08-15T01:09:59.238Z,89.67
2015-08-15T01:10:11.645Z,89.48
2015-08-15T01:10:24.082Z,89.67
2015-08-15T01:10:36.459Z,89.48
2015-08-15T01:10:48.834Z,89.67
2015-08-15T01:11:01.209Z,89.67
2015-08-15T01:11:13.584Z,89.67
2015-08-15T01:11:25.959Z,89.48
2015-08-15T01:11:38.352Z,89.76
2015-08-15T01:11:50.727Z,89.48
2015-08-15T01:12:03.102Z,90.14
2015-08-15T01:12:15.477Z,90.05
2015-08-15T01:12:27.852Z,90.05
2015-08-15T01:12:40.228Z,89.95
2015-08-15T01:12:52.603Z,89.95
2015-08-15T01:13:04.978Z,90.14
2015-08-15T01:13:17.353Z,90.14
2015-08-15T01:13:29.743Z,89.95
2015-08-15T01:13:42.105Z,90.24
2015-08-15T01:13:54.480Z,90.52
2015-08-15T01:14:06.855Z,90.71
2015-08-15T01:14:19.230Z,90.43
2015-08-15T01:14:31.605Z,90.24
2015-08-15T01:14:43.982Z,90.81
2015-08-15T01:14:56.372Z,90.52
2015-08-15T01:15:08.747Z,90.71
2015-08-15T01:15:21.122Z,90.71
2015-08-15T01:15:33.497Z,90.71
2015-08-15T01:15:45.874Z,90.81
2015-08-15T01:15:58.249Z,90.43
2015-08-15T01:16:10.624Z,90.71
2015-08-15T01:16:22.999Z,90.62
2015-08-15T01:16:35.406Z,90.71
2015-08-15T01:16:47.798Z,90.05
2015-08-15T01:17:00.173Z,89.86
2015-08-15T01:17:12.564Z,89.86
2015-08-15T01:17:24.798Z,90.24
2015-08-15T01:17:37.205Z,90.05
2015-08-15T01:17:49.613Z,89.95
2015-08-15T01:18:02.019Z,89.76
2015-08-15T01:18:14.425Z,89.48
2015-08-15T01:18:26.816Z,89.48
2015-08-15T01:18:39.238Z,89.48
2015-08-15T01:18:51.630Z,89.76
2015-08-15T01:19:04.037Z,89.95
2015-08-15T01:19:16.459Z,89.95
2015-08-15T01:19:28.834Z,90.24
2015-08-15T01:19:41.209Z,90.33
2015-08-15T01:19:53.586Z,90.71
2015-08-15T01:20:05.961Z,90.43
2015-08-15T01:20:18.336Z,90.62
2015-08-15T01:20:30.711Z,91
2015-08-15T01:20:43.086Z,91
2015-08-15T01:20:55.463Z,90.9
2015-08-15T01:21:07.822Z,90.62
2015-08-15T01:21:20.213Z,90.62
2015-08-15T01:21:32.588Z,90.62
2015-08-15T01:21:44.994Z,90.62
2015-08-15T01:21:57.371Z,90.62
2015-08-15T01:22:09.746Z,90.81
2015-08-15T01:22:22.136Z,90.71
2015-08-15T01:22:34.511Z,90.81
2015-08-15T01:22:46.886Z,90.24
2015-08-15T01:22:59.248Z,90.71
2015-08-15T01:23:11.623Z,89.76
2015-08-15T01:23:23.982Z,90.05
2015-08-15T01:23:36.357Z,89.48
2015-08-15T01:23:48.717Z,89.67
2015-08-15T01:24:01.094Z,89.39
2015-08-15T01:24:13.484Z,89.86
2015-08-15T01:24:25.875Z,89.58
2015-08-15T01:24:38.250Z,89.67
2015-08-15T01:24:50.640Z,89.39
2015-08-15T01:25:03.049Z,89.67
2015-08-15T01:25:15.455Z,89.58
2015-08-15T01:25:27.861Z,89.67
2015-08-15T01:25:40.252Z,89.29
2015-08-15T01:25:52.658Z,89.29
2015-08-15T01:26:04.909Z,89.29
2015-08-15T01:26:17.315Z,89.1
2015-08-15T01:26:29.722Z,89.39
2015-08-15T01:26:42.128Z,89.48
2015-08-15T01:26:54.534Z,89.67
2015-08-15T01:27:06.912Z,89.67
2015-08-15T01:27:19.287Z,89.86
2015-08-15T01:27:31.662Z,89.39
2015-08-15T01:27:44.037Z,89.48
2015-08-15T01:27:56.412Z,89.48
2015-08-15T01:28:08.805Z,88.91
2015-08-15T01:28:21.180Z,88.91
2015-08-15T01:28:33.539Z,88.53
2015-08-15T01:28:45.914Z,88.81
2015-08-15T01:28:58.305Z,89.58
2015-08-15T01:29:10.697Z,89.58
2015-08-15T01:29:23.072Z,89.29
2015-08-15T01:29:35.447Z,88.72
2015-08-15T01:29:47.822Z,89.39
2015-08-15T01:30:00.198Z,89
2015-08-15T01:30:12.573Z,89.29
2015-08-15T01:30:24.964Z,89.39
2015-08-15T01:30:37.339Z,89.39
2015-08-15T01:30:49.714Z,89.39
2015-08-15T01:31:02.091Z,89.39
2015-08-15T01:31:14.466Z,89.39
2015-08-15T01:31:26.857Z,89.48
2015-08-15T01:31:39.232Z,89.48
2015-08-15T01:31:51.622Z,89.29
2015-08-15T01:32:03.999Z,89.39
2015-08-15T01:32:15.687Z,89.39
2015-08-15T01:32:27.374Z,89.2
2015-08-15T01:32:39.780Z,89.29
2015-08-15T01:32:52.171Z,89.67
2015-08-15T01:33:04.595Z,89.1
2015-08-15T01:33:17.001Z,89.39
2015-08-15T01:33:29.392Z,89.39
2015-08-15T01:33:41.829Z,89.39
2015-08-15T01:33:54.220Z,89.76
2015-08-15T01:34:06.628Z,89.76
2015-08-15T01:34:18.988Z,89.67
2015-08-15T01:34:31.363Z,89.67
2015-08-15T01:34:43.738Z,89.58
2015-08-15T01:34:55.394Z,89.29
2015-08-15T01:35:07.786Z,89.48
2015-08-15T01:35:20.161Z,89.39
2015-08-15T01:35:32.552Z,89.86
2015-08-15T01:35:44.927Z,89.76
2015-08-15T01:35:57.318Z,89.86
2015-08-15T01:36:09.695Z,89.48
2015-08-15T01:36:22.070Z,89.48
2015-08-15T01:36:34.445Z,89.39
2015-08-15T01:36:46.835Z,89.67
2015-08-15T01:36:59.210Z,89.76
2015-08-15T01:37:11.604Z,89.86
2015-08-15T01:37:23.979Z,89.29
2015-08-15T01:37:36.354Z,89.29
2015-08-15T01:37:48.026Z,89.48
2015-08-15T01:38:00.432Z,89.76
2015-08-15T01:38:12.809Z,89.29
2015-08-15T01:38:25.184Z,89.58
2015-08-15T01:38:37.559Z,89.58
2015-08-15T01:38:49.934Z,89.39
2015-08-15T01:39:02.325Z,89.67
2015-08-15T01:39:14.702Z,89.58
2015-08-15T01:39:27.077Z,89.48
2015-08-15T01:39:39.467Z,89.58
2015-08-15T01:39:51.155Z,89.95
2015-08-15T01:40:03.561Z,89.67
2015-08-15T01:40:15.968Z,89.86
2015-08-15T01:40:28.359Z,89.76
2015-08-15T01:40:40.765Z,90.05
2015-08-15T01:40:53.187Z,90.33
2015-08-15T01:41:05.593Z,89.95
2015-08-15T01:41:17.986Z,90.14
2015-08-15T01:41:30.439Z,89.76
2015-08-15T01:41:42.814Z,89.95
2015-08-15T01:41:55.189Z,90.43
2015-08-15T01:42:07.564Z,90.71
2015-08-15T01:42:19.941Z,90.43
2015-08-15T01:42:32.316Z,90.62
2015-08-15T01:42:44.691Z,90.9
2015-08-15T01:42:57.066Z,91
2015-08-15T01:43:09.441Z,90.71
2015-08-15T01:43:21.818Z,90.43
2015-08-15T01:43:34.193Z,90.52
2015-08-15T01:43:46.584Z,90.05
2015-08-15T01:43:58.959Z,90.05
2015-08-15T01:44:11.365Z,90.05
2015-08-15T01:44:23.742Z,90.52
2015-08-15T01:44:36.117Z,90.62
2015-08-15T01:44:48.492Z,90.9
2015-08-15T01:45:00.867Z,90.71
2015-08-15T01:45:13.274Z,90.71
2015-08-15T01:45:25.649Z,90.52
2015-08-15T01:45:38.009Z,90.71
2015-08-15T01:45:50.399Z,90.71
2015-08-15T01:46:02.759Z,90.05
2015-08-15T01:46:15.137Z,90.24
2015-08-15T01:46:27.527Z,89.95
2015-08-15T01:46:39.902Z,89.67
2015-08-15T01:46:52.277Z,89.39
2015-08-15T01:47:04.652Z,89.29
2015-08-15T01:47:17.060Z,89.29
2015-08-15T01:47:29.545Z,89.2
2015-08-15T01:47:41.951Z,88.53
2015-08-15T01:47:54.357Z,89.2
2015-08-15T01:48:06.764Z,88.62
2015-08-15T01:48:19.187Z,89.48
2015-08-15T01:48:31.594Z,89
2015-08-15T01:48:44.000Z,88.53
2015-08-15T01:48:55.687Z,88.81
2015-08-15T01:49:08.109Z,88.53
2015-08-15T01:49:19.782Z,89.1
2015-08-15T01:49:32.142Z,89.29
2015-08-15T01:49:44.532Z,88.53
2015-08-15T01:49:56.892Z,88.91
2015-08-15T01:50:09.267Z,89.2
2015-08-15T01:50:21.644Z,88.81
2015-08-15T01:50:34.019Z,88.91
2015-08-15T01:50:45.675Z,89.1
2015-08-15T01:50:58.050Z,89.1
2015-08-15T01:51:10.425Z,89.29
2015-08-15T01:51:22.803Z,89.29
2015-08-15T01:51:35.178Z,89.76
2015-08-15T01:51:47.553Z,89.76
2015-08-15T01:51:59.943Z,89.67
2015-08-15T01:52:12.318Z,89.2
2015-08-15T01:52:24.679Z,89.58
2015-08-15T01:52:37.069Z,89.58
2015-08-15T01:52:49.444Z,89.29
2015-08-15T01:53:01.819Z,89.48
2015-08-15T01:53:14.179Z,89.58
2015-08-15T01:53:26.557Z,89.76
2015-08-15T01:53:38.229Z,89.67
2015-08-15T01:53:50.619Z,89.58
2015-08-15T01:54:03.010Z,90.14
2015-08-15T01:54:15.385Z,90.14
2015-08-15T01:54:27.761Z,90.24
2015-08-15T01:54:40.152Z,89.76
2015-08-15T01:54:52.558Z,89.76
2015-08-15T01:55:04.964Z,90.05
2015-08-15T01:55:17.370Z,89.39
2015-08-15T01:55:29.779Z,89.58
2015-08-15T01:55:42.185Z,89.58
2015-08-15T01:55:54.591Z,89.58
2015-08-15T01:56:07.013Z,89.39
2015-08-15T01:56:19.419Z,89.48
2015-08-15T01:56:31.827Z,89.58
2015-08-15T01:56:44.234Z,89.39
2015-08-15T01:56:56.609Z,89.76
2015-08-15T01:57:08.265Z,89.95
2015-08-15T01:57:20.640Z,89.1
2015-08-15T01:57:33.002Z,89.29
2015-08-15T01:57:45.377Z,89.48
2015-08-15T01:57:57.768Z,89.39
2015-08-15T01:58:10.143Z,89.1
2015-08-15T01:58:22.502Z,89.29
2015-08-15T01:58:34.894Z,89.48
2015-08-15T01:58:47.269Z,89.1
2015-08-15T01:58:59.644Z,89
2015-08-15T01:59:11.878Z,89.2
2015-08-15T01:59:24.238Z,88.91
2015-08-15T01:59:36.615Z,88.53
2015-08-15T01:59:48.990Z,88.72
2015-08-15T02:00:01.365Z,89.29
2015-08-15T02:00:13.740Z,88.81
2015-08-15T02:00:26.132Z,88.91
2015-08-15T02:00:38.507Z,89.58
2015-08-15T02:00:50.882Z,89.29
2015-08-15T02:01:03.257Z,89.29
2015-08-15T02:01:15.632Z,89.1
2015-08-15T02:01:28.025Z,89.1
2015-08-15T02:01:40.416Z,89.48
2015-08-15T02:01:52.806Z,89.29
2015-08-15T02:02:05.181Z,89.29
2015-08-15T02:02:17.572Z,89.29
2015-08-15T02:02:29.980Z,89.48
2015-08-15T02:02:42.386Z,89.29
2015-08-15T02:02:54.777Z,89.86
2015-08-15T02:03:07.168Z,89.76
2015-08-15T02:03:19.574Z,89.95
2015-08-15T02:03:31.982Z,89.48
2015-08-15T02:03:44.404Z,89.67
2015-08-15T02:03:56.795Z,89.67
2015-08-15T02:04:09.216Z,89.29
2015-08-15T02:04:21.591Z,89.29
2015-08-15T02:04:33.952Z,89.58
2015-08-15T02:04:46.327Z,89.58
2015-08-15T02:04:58.702Z,89.1
2015-08-15T02:05:11.061Z,89.58
2015-08-15T02:05:23.436Z,89.1
2015-08-15T02:05:35.814Z,89.1
2015-08-15T02:05:48.189Z,89.29
2015-08-15T02:06:00.580Z,89.1
2015-08-15T02:06:12.939Z,89.1
2015-08-15T02:06:25.330Z,89.48
2015-08-15T02:06:37.707Z,88.91
2015-08-15T02:06:50.082Z,88.91
2015-08-15T02:07:02.457Z,88.91
2015-08-15T02:07:14.832Z,88.81
2015-08-15T02:07:27.207Z,89.39
2015-08-15T02:07:39.599Z,89.1
2015-08-15T02:07:51.974Z,88.81
2015-08-15T02:08:04.365Z,89
2015-08-15T02:08:16.724Z,88.81
2015-08-15T02:08:29.193Z,89.1
2015-08-15T02:08:40.850Z,89.48
2015-08-15T02:08:53.272Z,89.39
2015-08-15T02:09:05.491Z,89.39
2015-08-15T02:09:17.882Z,89.29
2015-08-15T02:09:30.272Z,89.29
2015-08-15T02:09:42.509Z,89.1
2015-08-15T02:09:54.915Z,89.48
2015-08-15T02:10:07.321Z,89
2015-08-15T02:10:19.727Z,89.1
2015-08-15T02:10:32.118Z,89.29
2015-08-15T02:10:44.543Z,89.1
2015-08-15T02:10:56.949Z,89.29
2015-08-15T02:11:09.355Z,89.29
2015-08-15T02:11:21.762Z,89.1
2015-08-15T02:11:34.168Z,89.1
2015-08-15T02:11:46.545Z,89.1
2015-08-15T02:11:58.764Z,89.29
2015-08-15T02:12:11.139Z,89.39
2015-08-15T02:12:23.514Z,89.39
2015-08-15T02:12:35.889Z,89.29
2015-08-15T02:12:48.266Z,89.1
2015-08-15T02:13:00.500Z,89.1
2015-08-15T02:13:12.875Z,89.39
2015-08-15T02:13:25.234Z,89.39
2015-08-15T02:13:37.619Z,89.39
2015-08-15T02:13:49.994Z,89.95
2015-08-15T02:14:02.385Z,89.48
2015-08-15T02:14:14.760Z,89.48
2015-08-15T02:14:27.135Z,89.48
2015-08-15T02:14:39.535Z,89.67
2015-08-15T02:14:51.910Z,89.58
2015-08-15T02:15:04.285Z,89.58
2015-08-15T02:15:16.676Z,89.67
2015-08-15T02:15:29.035Z,89.58
2015-08-15T02:15:41.451Z,89.76
2015-08-15T02:15:53.826Z,89.48
2015-08-15T02:16:05.498Z,89.48
2015-08-15T02:16:17.155Z,89.58
2015-08-15T02:16:29.530Z,89.86
2015-08-15T02:16:41.961Z,89.2
2015-08-15T02:16:54.352Z,89.1
2015-08-15T02:17:06.742Z,89.58
2015-08-15T02:17:19.133Z,89.39
2015-08-15T02:17:31.555Z,89.48
2015-08-15T02:17:44.004Z,89.39
2015-08-15T02:17:56.410Z,89.29
2015-08-15T02:18:08.832Z,89.1
2015-08-15T02:18:21.223Z,89.58
2015-08-15T02:18:33.629Z,89.39
2015-08-15T02:18:46.068Z,89.2
2015-08-15T02:18:58.506Z,89.2
2015-08-15T02:19:10.881Z,89.86
2015-08-15T02:19:23.256Z,89.29
2015-08-15T02:19:35.631Z,89.39
2015-08-15T02:19:48.006Z,89.39
2015-08-15T02:20:00.397Z,89.39
2015-08-15T02:20:12.772Z,89.48
2015-08-15T02:20:25.147Z,89.29
2015-08-15T02:20:37.522Z,90.05
2015-08-15T02:20:49.913Z,89.58
2015-08-15T02:21:02.147Z,89.67
2015-08-15T02:21:14.522Z,89.48
2015-08-15T02:21:26.725Z,89.58
2015-08-15T02:21:39.132Z,89.67
2015-08-15T02:21:51.523Z,89.58
2015-08-15T02:22:03.898Z,89.76
2015-08-15T02:22:16.273Z,89.86
2015-08-15T02:22:28.648Z,89.67
2015-08-15T02:22:41.023Z,89.39
2015-08-15T02:22:53.414Z,89.95
2015-08-15T02:23:05.789Z,89.67
2015-08-15T02:23:18.179Z,89.39
2015-08-15T02:23:30.554Z,89.67
2015-08-15T02:23:42.773Z,89.86
2015-08-15T02:23:55.161Z,89.48
2015-08-15T02:24:07.536Z,89.39
2015-08-15T02:24:19.927Z,90.24
2015-08-15T02:24:32.317Z,90.24
2015-08-15T02:24:44.692Z,90.33
2015-08-15T02:24:57.121Z,89.86
2015-08-15T02:25:09.512Z,90.33
2015-08-15T02:25:21.199Z,90.33
2015-08-15T02:25:33.606Z,90.33
2015-08-15T02:25:46.027Z,90.14
2015-08-15T02:25:58.300Z,89.95
2015-08-15T02:26:10.691Z,90.14
2015-08-15T02:26:23.113Z,90.24
2015-08-15T02:26:35.519Z,90.05
2015-08-15T02:26:47.894Z,90.05
2015-08-15T02:27:00.276Z,90.71
2015-08-15T02:27:12.651Z,90.62
2015-08-15T02:27:25.026Z,90.43
2015-08-15T02:27:37.401Z,90.71
2015-08-15T02:27:49.776Z,90.71
2015-08-15T02:28:02.158Z,91
2015-08-15T02:28:14.533Z,90.52
2015-08-15T02:28:26.923Z,90.81
2015-08-15T02:28:39.283Z,90.62
2015-08-15T02:28:51.658Z,90.62
2015-08-15T02:29:04.039Z,90.43
2015-08-15T02:29:16.414Z,90.43
2015-08-15T02:29:28.789Z,90.52
2015-08-15T02:29:41.148Z,90.43
2015-08-15T02:29:53.539Z,90.24
2015-08-15T02:30:05.918Z,90.05
2015-08-15T02:30:18.293Z,90.24
2015-08-15T02:30:30.668Z,90.24
2015-08-15T02:30:42.324Z,89.86
2015-08-15T02:30:54.699Z,90.24
2015-08-15T02:31:07.078Z,90.14
2015-08-15T02:31:19.469Z,90.52
2015-08-15T02:31:31.859Z,90.71
2015-08-15T02:31:44.234Z,90.62
2015-08-15T02:31:56.687Z,90.24
2015-08-15T02:32:09.081Z,90.43
2015-08-15T02:32:21.503Z,90.43
2015-08-15T02:32:33.925Z,90.52
2015-08-15T02:32:46.315Z,90.62
2015-08-15T02:32:58.722Z,90.9
2015-08-15T02:33:11.133Z,90.62
2015-08-15T02:33:23.524Z,90.71
2015-08-15T02:33:35.945Z,90.81
2015-08-15T02:33:48.367Z,90.71
2015-08-15T02:34:00.742Z,90.81
2015-08-15T02:34:12.947Z,90.62
2015-08-15T02:34:25.338Z,90.81
2015-08-15T02:34:37.713Z,91
2015-08-15T02:34:50.088Z,90.9
2015-08-15T02:35:02.447Z,91
2015-08-15T02:35:14.841Z,90.62
2015-08-15T02:35:27.232Z,90.43
2015-08-15T02:35:39.607Z,90.81
2015-08-15T02:35:51.982Z,90.9
2015-08-15T02:36:04.357Z,90.9
2015-08-15T02:36:16.750Z,91
2015-08-15T02:36:29.110Z,90.81
2015-08-15T02:36:41.344Z,90.9
2015-08-15T02:36:53.719Z,91
2015-08-15T02:37:06.078Z,91
2015-08-15T02:37:18.456Z,90.62
2015-08-15T02:37:30.831Z,90.9
2015-08-15T02:37:43.222Z,91.38
2015-08-15T02:37:55.597Z,91.19
2015-08-15T02:38:07.972Z,91
2015-08-15T02:38:20.334Z,91
2015-08-15T02:38:32.709Z,91.09
2015-08-15T02:38:45.100Z,90.71
2015-08-15T02:38:57.475Z,90.9
2015-08-15T02:39:09.163Z,90.9
2015-08-15T02:39:21.540Z,90.33
2015-08-15T02:39:33.946Z,90.71
2015-08-15T02:39:46.352Z,90.71
2015-08-15T02:39:58.774Z,90.33